createdAt,value
2022-10-25T00:01:22.208Z,2.77
2022-10-25T00:03:50.285Z,2.50
2022-10-25T00:06:18.344Z,2.30
2022-10-25T00:08:46.279Z,2.33
2022-10-25T00:11:19.187Z,2.10
2022-10-25T00:13:49.216Z,2.03
2022-10-25T00:16:18.779Z,1.90
2022-10-25T00:18:46.771Z,1.53
2022-10-25T00:21:14.758Z,1.70
2022-10-25T00:23:42.591Z,2.33
2022-10-25T00:26:12.419Z,2.63
2022-10-25T00:28:41.451Z,2.17
2022-10-25T00:31:13.955Z,2.50
2022-10-25T00:33:43.815Z,2.63
2022-10-25T00:36:13.350Z,2.17
2022-10-25T00:38:41.493Z,2.43
2022-10-25T00:41:10.930Z,1.80
2022-10-25T00:43:41.525Z,2.00
2022-10-25T00:46:15.474Z,1.93
2022-10-25T00:48:48.585Z,1.80
2022-10-25T00:51:16.504Z,2.10
2022-10-25T00:53:44.709Z,2.07
2022-10-25T00:56:17.523Z,2.00
2022-10-25T00:58:50.349Z,2.10
2022-10-25T01:01:19.803Z,2.23
2022-10-25T01:03:50.572Z,2.43
2022-10-25T01:06:24.372Z,2.80
2022-10-25T01:08:54.005Z,3.13
2022-10-25T01:11:21.854Z,3.00
2022-10-25T01:13:50.869Z,2.73
2022-10-25T01:16:28.303Z,3.10
2022-10-25T01:19:05.811Z,2.93
2022-10-25T01:21:52.665Z,2.60
2022-10-25T01:25:05.254Z,2.20
2022-10-25T01:28:02.191Z,1.60
2022-10-25T01:31:01.529Z,1.70
2022-10-25T01:33:36.420Z,1.80
2022-10-25T01:36:11.118Z,1.40
2022-10-25T01:38:44.002Z,1.73
2022-10-25T01:41:21.101Z,1.40
2022-10-25T01:43:58.462Z,1.40
2022-10-25T01:46:36.549Z,1.27
2022-10-25T01:49:07.235Z,1.27
2022-10-25T01:51:37.008Z,1.90
2022-10-25T01:54:04.915Z,1.80
2022-10-25T01:56:37.803Z,1.37
2022-10-25T01:59:24.050Z,1.60
2022-10-25T02:02:05.563Z,1.63
2022-10-25T02:04:44.953Z,1.60
2022-10-25T02:07:17.955Z,1.97
2022-10-25T02:09:56.281Z,1.90
2022-10-25T02:12:31.172Z,1.63
2022-10-25T02:15:08.814Z,1.50
2022-10-25T02:17:44.246Z,1.60
2022-10-25T02:20:14.806Z,1.33
2022-10-25T02:22:43.121Z,1.80
2022-10-25T02:25:13.204Z,1.37
2022-10-25T02:27:41.327Z,1.80
2022-10-25T02:30:10.360Z,1.93
2022-10-25T02:32:39.686Z,1.67
2022-10-25T02:37:46.826Z,1.80
2022-10-25T02:40:15.005Z,1.80
2022-10-25T02:46:33.503Z,1.60
2022-10-25T02:49:02.711Z,2.00
2022-10-25T02:51:30.522Z,2.10
2022-10-25T02:53:58.383Z,1.97
2022-10-25T02:56:26.330Z,2.07
2022-10-25T02:58:57.646Z,2.40
2022-10-25T03:01:27.143Z,2.60
2022-10-25T03:03:54.998Z,2.80
2022-10-25T03:06:24.171Z,3.30
2022-10-25T03:08:51.951Z,3.33
2022-10-25T03:11:20.724Z,3.03
2022-10-25T03:13:48.698Z,3.00
2022-10-25T03:16:16.481Z,2.20
2022-10-25T03:18:44.340Z,2.40
2022-10-25T03:21:12.266Z,2.53
2022-10-25T03:23:41.383Z,2.07
2022-10-25T03:26:09.182Z,2.50
2022-10-25T03:28:36.989Z,2.40
2022-10-25T03:31:11.387Z,2.77
2022-10-25T03:33:39.353Z,2.90
2022-10-25T03:36:07.929Z,2.77
2022-10-25T03:38:35.738Z,2.83
2022-10-25T03:41:04.930Z,3.40
2022-10-25T03:43:33.029Z,3.07
2022-10-25T03:46:01.002Z,3.47
2022-10-25T03:48:28.783Z,3.13
2022-10-25T03:50:56.548Z,3.23
2022-10-25T03:53:24.373Z,2.83
2022-10-25T03:55:52.125Z,2.70
2022-10-25T03:58:21.581Z,2.23
2022-10-25T04:00:49.475Z,2.43
2022-10-25T04:03:17.306Z,2.00
2022-10-25T04:05:45.121Z,1.73
2022-10-25T04:08:12.900Z,2.00
2022-10-25T04:10:40.775Z,2.30
2022-10-25T04:13:08.563Z,1.67
2022-10-25T04:15:38.776Z,1.40
2022-10-25T04:18:07.247Z,1.80
2022-10-25T04:20:35.156Z,1.57
2022-10-25T04:23:02.957Z,1.53
2022-10-25T04:25:30.731Z,1.70
2022-10-25T04:28:00.036Z,1.50
2022-10-25T04:30:27.969Z,1.93
2022-10-25T04:32:57.953Z,1.90
2022-10-25T04:35:25.851Z,1.73
2022-10-25T04:37:53.661Z,1.57
2022-10-25T04:40:24.011Z,2.30
2022-10-25T04:42:52.598Z,2.53
2022-10-25T04:45:20.466Z,1.80
2022-10-25T04:47:48.536Z,1.70
2022-10-25T04:50:17.936Z,2.20
2022-10-25T04:52:45.797Z,2.13
2022-10-25T04:55:13.990Z,1.80
2022-10-25T04:57:41.786Z,2.00
2022-10-25T05:00:11.134Z,1.90
2022-10-25T05:02:39.219Z,2.47
2022-10-25T05:05:07.969Z,2.40
2022-10-25T05:07:37.220Z,2.43
2022-10-25T05:10:05.369Z,2.40
2022-10-25T05:12:33.124Z,2.40
2022-10-25T05:15:00.945Z,2.17
2022-10-25T05:17:29.518Z,1.97
2022-10-25T05:19:57.343Z,2.00
2022-10-25T05:22:25.270Z,1.97
2022-10-25T05:24:54.530Z,2.00
2022-10-25T05:27:22.548Z,2.03
2022-10-25T05:29:50.370Z,2.20
2022-10-25T05:32:18.125Z,2.43
2022-10-25T05:34:45.961Z,2.60
2022-10-25T05:37:13.810Z,2.07
2022-10-25T05:39:41.602Z,2.67
2022-10-25T05:42:10.705Z,2.47
2022-10-25T05:44:38.521Z,2.80
2022-10-25T05:47:06.353Z,4.00
2022-10-25T05:49:39.534Z,3.60
2022-10-25T05:52:07.382Z,4.37
2022-10-25T05:54:35.152Z,4.57
2022-10-25T05:57:03.143Z,5.47
2022-10-25T05:59:32.352Z,5.03
2022-10-25T06:02:00.317Z,5.57
2022-10-25T06:04:28.456Z,5.43
2022-10-25T06:06:56.228Z,7.47
2022-10-25T06:09:24.040Z,8.13
2022-10-25T06:11:51.812Z,9.07
2022-10-25T06:14:19.607Z,7.80
2022-10-25T06:16:48.723Z,9.53
2022-10-25T06:19:16.517Z,6.07
2022-10-25T06:21:44.319Z,5.03
2022-10-25T06:24:12.482Z,4.70
2022-10-25T06:26:40.267Z,4.53
2022-10-25T06:29:08.041Z,4.13
2022-10-25T06:31:35.883Z,4.27
2022-10-25T06:34:05.154Z,3.13
2022-10-25T06:36:32.970Z,3.23
2022-10-25T06:39:05.200Z,2.90
2022-10-25T06:41:36.886Z,3.17
2022-10-25T06:44:06.799Z,3.33
2022-10-25T06:46:57.979Z,3.07
2022-10-25T06:49:26.114Z,2.83
2022-10-25T06:51:53.876Z,3.30
2022-10-25T06:54:21.791Z,3.43
2022-10-25T06:56:49.607Z,3.90
2022-10-25T06:59:17.941Z,3.60
2022-10-25T07:01:45.760Z,4.33
2022-10-25T07:04:13.674Z,3.63
2022-10-25T07:06:42.852Z,3.93
2022-10-25T07:09:12.466Z,3.27
2022-10-25T07:11:40.682Z,3.87
2022-10-25T07:14:11.795Z,3.70
2022-10-25T07:16:39.696Z,3.40
2022-10-25T07:19:07.520Z,3.30
2022-10-25T07:21:35.432Z,2.70
2022-10-25T07:24:04.933Z,2.93
2022-10-25T07:26:35.135Z,3.13
2022-10-25T07:29:04.379Z,3.40
2022-10-25T07:31:33.833Z,2.97
2022-10-25T07:34:03.332Z,3.60
2022-10-25T07:36:31.654Z,3.67
2022-10-25T07:38:59.683Z,4.10
2022-10-25T07:41:28.917Z,4.67
2022-10-25T07:43:57.058Z,4.53
2022-10-25T07:46:25.337Z,4.87
2022-10-25T07:48:53.226Z,4.73
2022-10-25T07:51:21.304Z,4.27
2022-10-25T07:53:49.977Z,4.33
2022-10-25T07:56:23.077Z,4.37
2022-10-25T07:58:53.421Z,3.90
2022-10-25T08:01:23.226Z,3.53
2022-10-25T08:03:51.478Z,3.83
2022-10-25T08:06:19.576Z,3.43
2022-10-25T08:08:47.628Z,3.20
2022-10-25T08:11:16.289Z,3.50
2022-10-25T08:13:44.184Z,2.93
2022-10-25T08:16:13.378Z,3.50
2022-10-25T08:18:41.216Z,3.33
2022-10-25T08:21:08.987Z,3.73
2022-10-25T08:23:36.759Z,3.50
2022-10-25T08:26:04.672Z,3.10
2022-10-25T08:28:32.820Z,3.93
2022-10-25T08:31:01.958Z,3.27
2022-10-25T08:33:31.992Z,3.30
2022-10-25T08:36:01.869Z,2.77
2022-10-25T08:38:29.838Z,3.03
2022-10-25T08:41:04.477Z,3.23
2022-10-25T08:43:54.685Z,2.53
2022-10-25T08:46:27.766Z,3.80
2022-10-25T08:49:07.724Z,3.00
2022-10-25T08:51:38.877Z,3.20
2022-10-25T08:54:16.482Z,3.20
2022-10-25T08:56:57.058Z,3.53
2022-10-25T08:59:35.291Z,3.03
2022-10-25T09:02:08.438Z,3.17
2022-10-25T09:04:37.622Z,3.20
2022-10-25T09:07:15.285Z,3.47
2022-10-25T09:09:50.491Z,2.80
2022-10-25T09:12:29.882Z,3.07
2022-10-25T09:15:04.580Z,2.13
2022-10-25T09:17:37.753Z,2.80
2022-10-25T09:20:12.489Z,2.77
2022-10-25T09:22:46.996Z,1.90
2022-10-25T09:25:22.756Z,1.90
2022-10-25T09:28:00.021Z,2.07
2022-10-25T09:30:31.026Z,2.53
2022-10-25T09:33:01.387Z,2.63
2022-10-25T09:35:36.274Z,2.37
2022-10-25T09:38:12.702Z,2.50
2022-10-25T09:40:47.973Z,2.30
2022-10-25T09:43:19.469Z,1.90
2022-10-25T09:45:51.135Z,2.13
2022-10-25T09:48:23.946Z,2.00
2022-10-25T09:50:56.696Z,2.27
2022-10-25T09:53:24.559Z,2.77
2022-10-25T09:55:54.812Z,3.17
2022-10-25T09:58:25.048Z,2.23
2022-10-25T10:00:54.889Z,1.90
2022-10-25T10:03:28.874Z,2.17
2022-10-25T10:06:01.335Z,2.13
2022-10-25T10:08:33.020Z,1.57
2022-10-25T10:11:01.096Z,2.30
2022-10-25T10:13:35.524Z,2.27
2022-10-25T10:16:06.346Z,1.80
2022-10-25T10:18:35.393Z,1.87
2022-10-25T10:21:09.033Z,1.77
2022-10-25T10:23:45.660Z,2.10
2022-10-25T10:26:20.435Z,2.20
2022-10-25T10:28:50.804Z,2.70
2022-10-25T10:31:20.047Z,2.20
2022-10-25T10:33:52.583Z,1.90
2022-10-25T10:36:27.635Z,2.47
2022-10-25T10:38:56.701Z,2.73
2022-10-25T10:41:27.823Z,3.10
2022-10-25T10:44:10.548Z,2.97
2022-10-25T10:46:44.512Z,2.87
2022-10-25T10:49:12.743Z,3.00
2022-10-25T10:51:45.208Z,2.50
2022-10-25T10:54:25.244Z,2.90
2022-10-25T10:57:01.604Z,2.63
2022-10-25T10:59:39.573Z,2.60
2022-10-25T11:02:41.524Z,1.97
2022-10-25T11:05:21.189Z,2.43
2022-10-25T11:07:58.192Z,1.90
2022-10-25T11:10:29.729Z,2.00
2022-10-25T11:13:10.141Z,2.23
2022-10-25T11:15:59.428Z,1.90
2022-10-25T11:18:38.051Z,2.30
2022-10-25T11:21:14.604Z,2.00
2022-10-25T11:23:56.718Z,1.97
2022-10-25T11:26:33.786Z,2.00
2022-10-25T11:29:10.964Z,2.00
2022-10-25T11:31:50.871Z,2.47
2022-10-25T11:34:31.499Z,2.60
2022-10-25T11:37:11.470Z,2.20
2022-10-25T11:39:50.573Z,2.33
2022-10-25T11:42:34.078Z,2.50
2022-10-25T11:45:22.967Z,2.50
2022-10-25T11:48:00.151Z,2.50
2022-10-25T11:50:35.457Z,2.30
2022-10-25T11:53:17.944Z,2.07
2022-10-25T11:55:52.290Z,2.20
2022-10-25T11:58:31.377Z,2.10
2022-10-25T12:01:08.177Z,2.13
2022-10-25T12:03:49.628Z,1.80
2022-10-25T12:06:24.168Z,2.10
2022-10-25T12:09:02.878Z,2.17
2022-10-25T12:11:35.244Z,2.05
2022-10-25T12:14:09.019Z,1.70
2022-10-25T12:16:38.790Z,1.80
2022-10-25T12:19:13.046Z,2.07
2022-10-25T12:21:44.626Z,1.90
2022-10-25T12:24:20.552Z,2.05
2022-10-25T12:26:53.173Z,2.00
2022-10-25T12:29:36.968Z,2.20
2022-10-25T12:32:14.291Z,1.77
2022-10-25T12:34:45.815Z,2.00
2022-10-25T12:37:20.416Z,1.80
2022-10-25T12:39:48.411Z,1.98
2022-10-25T12:42:22.673Z,1.63
2022-10-25T12:45:06.636Z,1.60
2022-10-25T12:47:48.966Z,2.00
2022-10-25T12:50:44.130Z,1.83
2022-10-25T12:53:49.501Z,1.67
2022-10-25T12:56:27.828Z,2.35
2022-10-25T12:59:08.950Z,1.67
2022-10-25T13:01:59.721Z,1.90
2022-10-25T13:04:46.950Z,2.10
2022-10-25T13:07:17.173Z,2.25
2022-10-25T13:09:45.315Z,1.88
2022-10-25T13:12:22.702Z,2.00
2022-10-25T13:14:54.149Z,2.00
2022-10-25T13:17:48.404Z,2.22
2022-10-25T13:20:50.470Z,1.80
2022-10-25T13:23:59.652Z,1.55
2022-10-25T13:26:34.023Z,1.75
2022-10-25T13:29:05.225Z,1.60
2022-10-25T13:31:58.316Z,1.50
2022-10-25T13:34:36.993Z,1.50
2022-10-25T13:37:43.627Z,1.58
2022-10-25T13:40:23.713Z,1.90
2022-10-25T13:43:01.531Z,1.75
2022-10-25T13:45:40.129Z,2.15
2022-10-25T13:48:23.276Z,2.10
2022-10-25T13:50:55.307Z,2.08
2022-10-25T13:53:26.163Z,2.13
2022-10-25T13:56:06.292Z,1.75
2022-10-25T13:58:49.709Z,2.08
2022-10-25T14:01:54.910Z,2.10
2022-10-25T14:04:35.994Z,1.85
2022-10-25T14:07:41.275Z,2.00
2022-10-25T14:10:17.161Z,1.73
2022-10-25T14:12:49.567Z,2.10
2022-10-25T14:15:30.721Z,1.88
2022-10-25T14:17:59.921Z,1.48
2022-10-25T14:20:31.604Z,1.60
2022-10-25T14:23:03.172Z,1.35
2022-10-25T14:25:37.119Z,1.40
2022-10-25T14:28:07.144Z,1.65
2022-10-25T14:30:39.354Z,1.40
2022-10-25T14:33:21.357Z,1.20
2022-10-25T14:35:52.041Z,1.63
2022-10-25T14:38:21.737Z,1.95
2022-10-25T14:40:54.593Z,1.77
2022-10-25T14:43:25.279Z,1.50
2022-10-25T14:45:58.293Z,1.33
2022-10-25T14:48:26.863Z,1.58
2022-10-25T14:50:58.471Z,1.52
2022-10-25T14:53:28.583Z,1.30
2022-10-25T14:55:59.400Z,1.40
2022-10-25T14:58:28.263Z,1.20
2022-10-25T15:00:58.756Z,1.40
2022-10-25T15:03:28.953Z,1.30
2022-10-25T15:06:00.404Z,1.30
2022-10-25T15:08:29.438Z,1.60
2022-10-25T15:11:00.071Z,1.20
2022-10-25T15:13:30.316Z,0.93
2022-10-25T15:16:02.888Z,1.25
2022-10-25T15:18:35.957Z,1.40
2022-10-25T15:21:10.955Z,1.35
2022-10-25T15:23:39.480Z,1.30
2022-10-25T15:26:28.383Z,1.10
2022-10-25T15:28:59.162Z,1.27
2022-10-25T15:31:29.123Z,1.48
2022-10-25T15:33:59.170Z,1.55
2022-10-25T15:36:30.599Z,1.40
2022-10-25T15:39:12.738Z,1.63
2022-10-25T15:41:43.604Z,1.58
2022-10-25T15:44:11.414Z,1.50
2022-10-25T15:46:40.111Z,1.42
2022-10-25T15:49:08.642Z,1.40
2022-10-25T15:51:41.470Z,1.25
2022-10-25T15:54:15.288Z,1.80
2022-10-25T15:56:43.089Z,1.30
2022-10-25T15:59:11.131Z,1.30
2022-10-25T16:01:41.652Z,1.50
2022-10-25T16:04:13.945Z,1.27
2022-10-25T16:06:44.512Z,1.60
2022-10-25T16:09:12.524Z,1.20
2022-10-25T16:11:44.947Z,1.00
2022-10-25T16:14:21.234Z,1.35
2022-10-25T16:16:49.195Z,1.30
2022-10-25T16:19:18.864Z,1.30
2022-10-25T16:21:48.097Z,1.48
2022-10-25T16:24:15.935Z,1.23
2022-10-25T16:26:45.799Z,1.47
2022-10-25T16:29:17.631Z,1.30
2022-10-25T16:31:45.628Z,1.30
2022-10-25T16:34:15.465Z,1.47
2022-10-25T16:36:43.297Z,1.70
2022-10-25T16:39:13.391Z,1.50
2022-10-25T16:41:43.884Z,1.70
2022-10-25T16:44:13.343Z,1.58
2022-10-25T16:46:41.481Z,1.63
2022-10-25T16:49:10.529Z,2.03
2022-10-25T16:51:39.652Z,2.20
2022-10-25T16:54:08.271Z,1.90
2022-10-25T16:56:37.513Z,1.93
2022-10-25T16:59:05.409Z,1.80
2022-10-25T17:01:39.004Z,1.50
2022-10-25T17:04:10.660Z,1.53
2022-10-25T17:06:42.359Z,1.57
2022-10-25T17:09:10.961Z,1.83
2022-10-25T17:11:40.389Z,1.97
2022-10-25T17:14:09.606Z,2.00
2022-10-25T17:16:37.790Z,1.83
2022-10-25T17:19:05.706Z,1.83
2022-10-25T17:21:35.770Z,1.37
2022-10-25T17:24:04.600Z,2.07
2022-10-25T17:26:32.376Z,2.03
2022-10-25T17:29:01.992Z,1.77
2022-10-25T17:31:30.144Z,1.93
2022-10-25T17:33:58.051Z,2.33
2022-10-25T17:36:25.980Z,1.80
2022-10-25T17:38:54.988Z,1.60
2022-10-25T17:41:22.825Z,2.00
2022-10-25T17:43:53.218Z,1.57
2022-10-25T17:46:27.766Z,1.80
2022-10-25T17:48:56.478Z,1.90
2022-10-25T17:51:24.607Z,1.93
2022-10-25T17:53:54.119Z,2.10
2022-10-25T17:56:24.054Z,1.90
2022-10-25T17:58:52.418Z,2.20
2022-10-25T18:01:22.236Z,2.03
2022-10-25T18:03:52.141Z,2.00
2022-10-25T18:08:54.810Z,1.73
2022-10-25T18:11:25.951Z,1.80
2022-10-25T18:13:55.606Z,1.90
2022-10-25T18:16:26.460Z,1.40
2022-10-25T18:18:58.015Z,1.60
2022-10-25T18:21:26.516Z,2.00
2022-10-25T18:23:55.965Z,1.80
2022-10-25T18:26:25.223Z,2.10
2022-10-25T18:28:53.181Z,1.90
2022-10-25T18:31:22.502Z,1.57
2022-10-25T18:33:50.471Z,1.90
2022-10-25T18:36:21.922Z,2.30
2022-10-25T18:38:50.366Z,1.90
2022-10-25T18:41:21.951Z,1.77
2022-10-25T18:43:50.240Z,2.37
2022-10-25T18:46:18.458Z,1.83
2022-10-25T18:48:51.082Z,2.20
2022-10-25T18:51:22.030Z,2.30
2022-10-25T18:53:53.582Z,2.37
2022-10-25T18:56:22.395Z,2.07
2022-10-25T18:58:50.251Z,2.00
2022-10-25T19:01:22.362Z,2.37
2022-10-25T19:03:50.328Z,2.37
2022-10-25T19:06:18.790Z,2.30
2022-10-25T19:08:49.221Z,2.40
2022-10-25T19:11:17.506Z,2.27
2022-10-25T19:13:48.968Z,2.47
2022-10-25T19:16:19.183Z,2.37
2022-10-25T19:18:47.170Z,2.40
2022-10-25T19:21:18.402Z,2.47
2022-10-25T19:23:48.326Z,2.43
2022-10-25T19:26:18.759Z,3.10
2022-10-25T19:28:46.950Z,3.17
2022-10-25T19:31:16.926Z,2.57
2022-10-25T19:33:46.652Z,3.13
2022-10-25T19:36:14.652Z,2.93
2022-10-25T19:38:43.161Z,2.70
2022-10-25T19:41:16.262Z,3.00
2022-10-25T19:43:44.691Z,3.00
2022-10-25T19:46:13.700Z,3.00
2022-10-25T19:48:41.740Z,3.17
2022-10-25T19:51:11.420Z,2.83
2022-10-25T19:53:40.181Z,2.77
2022-10-25T19:56:10.011Z,2.70
2022-10-25T19:58:39.203Z,2.90
2022-10-25T20:01:09.618Z,3.23
2022-10-25T20:03:38.643Z,3.20
2022-10-25T20:06:08.743Z,3.40
2022-10-25T20:08:37.807Z,3.03
2022-10-25T20:11:06.638Z,3.03
2022-10-25T20:13:34.464Z,3.63
2022-10-25T20:16:03.834Z,3.27
2022-10-25T20:18:34.693Z,3.57
2022-10-25T20:21:04.878Z,3.57
2022-10-25T20:23:33.024Z,2.83
2022-10-25T20:26:01.246Z,3.17
2022-10-25T20:28:30.194Z,3.20
2022-10-25T20:31:04.618Z,3.30
2022-10-25T20:33:32.485Z,3.50
2022-10-25T20:36:03.021Z,3.50
2022-10-25T20:38:31.696Z,3.70
2022-10-25T20:41:03.705Z,3.70
2022-10-25T20:43:31.614Z,3.60
2022-10-25T20:45:59.605Z,3.20
2022-10-25T20:48:29.304Z,3.40
2022-10-25T20:50:57.361Z,3.60
2022-10-25T20:53:25.180Z,3.03
2022-10-25T20:55:52.987Z,3.20
2022-10-25T20:58:22.453Z,3.30
2022-10-25T21:00:53.535Z,3.03
2022-10-25T21:03:21.730Z,3.27
2022-10-25T21:05:53.718Z,3.70
2022-10-25T21:08:22.932Z,3.30
2022-10-25T21:10:54.759Z,3.60
2022-10-25T21:13:25.527Z,3.50
2022-10-25T21:15:54.239Z,3.40
2022-10-25T21:18:22.081Z,3.57
2022-10-25T21:20:51.269Z,3.47
2022-10-25T21:23:19.145Z,3.17
2022-10-25T21:25:46.985Z,3.53
2022-10-25T21:28:14.882Z,3.00
2022-10-25T21:30:43.677Z,3.03
2022-10-25T21:33:11.517Z,3.00
2022-10-25T21:35:39.321Z,3.10
2022-10-25T21:38:08.507Z,3.20
2022-10-25T21:40:36.715Z,2.97
2022-10-25T21:43:04.487Z,3.37
2022-10-25T21:45:32.337Z,3.30
2022-10-25T21:48:00.149Z,2.70
2022-10-25T21:50:27.927Z,3.17
2022-10-25T21:52:55.719Z,3.30
2022-10-25T21:55:24.937Z,2.90
2022-10-25T21:57:54.421Z,3.37
2022-10-25T22:00:22.647Z,2.93
2022-10-25T22:02:50.489Z,3.13
2022-10-25T22:05:18.258Z,3.10
2022-10-25T22:07:46.420Z,3.13
2022-10-25T22:10:15.144Z,2.87
2022-10-25T22:12:44.477Z,3.03
2022-10-25T22:15:12.511Z,3.50
2022-10-25T22:17:40.294Z,2.90
2022-10-25T22:20:09.338Z,2.90
2022-10-25T22:22:37.171Z,2.87
2022-10-25T22:25:05.339Z,2.77
2022-10-25T22:27:33.180Z,2.77
2022-10-25T22:30:02.422Z,2.50
2022-10-25T22:32:30.221Z,2.87
2022-10-25T22:34:58.541Z,3.03
2022-10-25T22:37:26.333Z,2.83
2022-10-25T22:39:54.187Z,3.33
2022-10-25T22:42:21.972Z,2.83
2022-10-25T22:44:49.775Z,3.10
2022-10-25T22:47:18.950Z,2.90
2022-10-25T22:49:46.698Z,3.00
2022-10-25T22:52:14.885Z,3.10
2022-10-25T22:54:42.766Z,3.20
2022-10-25T22:57:10.544Z,3.00
2022-10-25T22:59:38.303Z,3.13
2022-10-25T23:02:06.254Z,2.77
2022-10-25T23:04:35.564Z,3.13
2022-10-25T23:07:03.477Z,2.90
2022-10-25T23:09:31.413Z,2.93
2022-10-25T23:11:59.221Z,2.87
2022-10-25T23:14:27.055Z,2.90
2022-10-25T23:16:54.809Z,2.80
2022-10-25T23:19:22.592Z,2.60
2022-10-25T23:21:51.825Z,2.60
2022-10-25T23:24:20.113Z,2.77
2022-10-25T23:26:47.935Z,2.43
2022-10-25T23:29:15.725Z,3.20
2022-10-25T23:31:43.590Z,2.47
2022-10-25T23:34:12.323Z,3.00
2022-10-25T23:36:40.140Z,2.57
2022-10-25T23:39:09.480Z,2.47
2022-10-25T23:41:37.673Z,2.87
2022-10-25T23:44:05.815Z,2.57
2022-10-25T23:46:33.623Z,2.37
2022-10-25T23:49:01.562Z,2.77
2022-10-25T23:51:29.432Z,2.50
2022-10-25T23:53:57.352Z,2.63
2022-10-25T23:56:27.240Z,2.27
2022-10-25T23:58:55.019Z,2.50
